< < Back
Terminal Aerodrome Forecast


Current Version              Previous Versions:   1  2  3  4  5  6  7  8  9  

Terminal Aerodrome Forecast

798
FTUS42 KCHS 041125
TAFCHS
TAF
KCHS 041125Z 0412/0512 27008KT P6SM VCSH SCT015 BKN050
     FM041600 26010G16KT P6SM FEW060
     FM050000 26006KT P6SM SCT200=

Latest METAR

209
SAUS80 KWBC 041500 CCB
MTRCHS
METAR KCHS 041456Z 30010KT 10SM FEW030 24/14 A2972 RMK AO2 SLP063
T02440139 55005


USA.gov is the U.S. government's official web portal to all federal, state and local government web resources and services.